< < Back
Terminal Aerodrome Forecast


Current Version              Previous Versions:   1  2  3  4  5  6  7  8  9  

Terminal Aerodrome Forecast

227
FTUS42 KJAX 202100 AAB
TAFSSI
TAF AMD
KSSI 202100Z 2021/2118 23010G20KT P6SM -SHRA SCT015 BKN050 OVC100
      TEMPO 2021/2023 5SM SHRA BR BKN030
     FM210100 18007KT P6SM VCSH FEW025 SCT040 BKN150
     FM210900 27008KT P6SM VCSH SCT030 BKN200
     FM211300 33009KT P6SM BKN250=

Latest METAR

669
SAUS70 KWBC 210500
MTRSSI
METAR KSSI 210453Z AUTO 21007KT 10SM CLR 19/17 A2990 RMK AO2 SLP125
T01890167 402500183 $


USA.gov is the U.S. government's official web portal to all federal, state and local government web resources and services.